createdAt,value
2023-04-01T00:01:04.159Z,98944.91
2023-04-01T00:03:32.097Z,98937.81
2023-04-01T00:05:59.796Z,98943.84
2023-04-01T00:08:27.426Z,98945.72
2023-04-01T00:10:54.195Z,98943.63
2023-04-01T00:13:21.313Z,98941.94
2023-04-01T00:15:47.779Z,98944.22
2023-04-01T00:18:15.139Z,98948.78
2023-04-01T00:20:51.397Z,98939.59
2023-04-01T00:23:19.668Z,98935.84
2023-04-01T00:25:48.065Z,98935.09
2023-04-01T00:28:16.253Z,98937.03
2023-04-01T00:30:42.394Z,98946.44
2023-04-01T00:33:08.888Z,98945.00
2023-04-01T00:35:35.682Z,98934.28
2023-04-01T00:38:02.180Z,98942.91
2023-04-01T00:40:30.289Z,98943.09
2023-04-01T00:42:56.971Z,98931.69
2023-04-01T00:45:43.571Z,98933.97
2023-04-01T00:48:31.496Z,98931.31
2023-04-01T00:51:00.600Z,98932.78
2023-04-01T00:53:28.915Z,98937.78
2023-04-01T00:56:04.848Z,98937.78
2023-04-01T00:58:35.763Z,98928.78
2023-04-01T01:01:02.202Z,98939.47
2023-04-01T01:03:29.133Z,98936.72
2023-04-01T01:06:43.629Z,98937.75
2023-04-01T01:09:31.446Z,98936.72
2023-04-01T01:12:13.497Z,98927.72
2023-04-01T01:14:53.167Z,98931.06
2023-04-01T01:17:53.426Z,98923.56
2023-04-01T01:20:47.494Z,98921.66
2023-04-01T01:23:35.395Z,98921.44
2023-04-01T01:26:26.221Z,98914.56
2023-04-01T01:29:05.078Z,98920.41
2023-04-01T01:31:37.385Z,98929.59
2023-04-01T01:34:33.321Z,98925.22
2023-04-01T01:37:03.543Z,98926.03
2023-04-01T01:39:33.738Z,98929.38
2023-04-01T01:42:05.079Z,98931.06
2023-04-01T01:44:34.880Z,98925.84
2023-04-01T01:47:02.655Z,98924.78
2023-04-01T01:49:32.408Z,98930.44
2023-04-01T01:51:58.956Z,98923.34
2023-04-01T01:54:25.063Z,98928.16
2023-04-01T01:56:59.770Z,98922.94
2023-04-01T01:59:27.333Z,98927.31
2023-04-01T02:01:56.757Z,98920.22
2023-04-01T02:04:23.854Z,98926.47
2023-04-01T02:07:00.932Z,98926.06
2023-04-01T02:09:27.172Z,98925.84
2023-04-01T02:11:59.611Z,98915.00
2023-04-01T02:14:37.536Z,98909.34
2023-04-01T02:17:15.313Z,98916.66
2023-04-01T02:19:48.137Z,98913.72
2023-04-01T02:22:19.161Z,98916.88
2023-04-01T02:24:46.503Z,98915.41
2023-04-01T02:27:13.042Z,98916.44
2023-04-01T02:29:39.551Z,98909.13
2023-04-01T02:32:09.676Z,98908.09
2023-04-01T02:34:37.261Z,98907.88
2023-04-01T02:37:03.847Z,98913.94
2023-04-01T02:39:29.977Z,98910.81
2023-04-01T02:41:56.304Z,98915.41
2023-04-01T02:44:22.710Z,98911.66
2023-04-01T02:46:49.135Z,98918.75
2023-04-01T02:49:15.546Z,98920.81
2023-04-01T02:51:41.930Z,98925.44
2023-04-01T02:54:09.129Z,98924.81
2023-04-01T02:56:35.819Z,98929.81
2023-04-01T02:59:02.238Z,98928.34
2023-04-01T03:01:28.770Z,98928.75
2023-04-01T03:03:54.869Z,98929.00
2023-04-01T03:06:21.588Z,98930.63
2023-04-01T03:08:47.778Z,98926.03
2023-04-01T03:11:14.535Z,98928.34
2023-04-01T03:13:41.148Z,98925.00
2023-04-01T03:16:07.600Z,98923.31
2023-04-01T03:18:35.140Z,98929.81
2023-04-01T03:21:20.484Z,98925.00
2023-04-01T03:23:46.649Z,98925.81
2023-04-01T03:26:13.802Z,98915.78
2023-04-01T03:28:39.890Z,98917.25
2023-04-01T03:31:06.479Z,98929.75
2023-04-01T03:33:40.167Z,98925.13
2023-04-01T03:36:06.671Z,98924.94
2023-04-01T03:38:34.245Z,98929.34
2023-04-01T03:41:00.775Z,98928.31
2023-04-01T03:43:27.248Z,98925.38
2023-04-01T03:45:55.115Z,98931.19
2023-04-01T03:48:21.312Z,98929.53
2023-04-01T03:50:48.923Z,98933.91
2023-04-01T03:53:15.611Z,98932.69
2023-04-01T03:55:44.715Z,98930.75
2023-04-01T03:58:10.979Z,98938.44
2023-04-01T04:00:37.467Z,98941.59
2023-04-01T04:03:03.843Z,98946.22
2023-04-01T04:05:34.170Z,98946.41
2023-04-01T04:08:00.580Z,98948.13
2023-04-01T04:10:27.202Z,98947.88
2023-04-01T04:12:53.343Z,98950.81
2023-04-01T04:15:23.258Z,98956.47
2023-04-01T04:17:49.400Z,98957.69
2023-04-01T04:20:15.785Z,98964.63
2023-04-01T04:22:42.223Z,98964.63
2023-04-01T04:25:09.197Z,98960.84
2023-04-01T04:27:36.280Z,98966.31
2023-04-01T04:30:08.620Z,98961.94
2023-04-01T04:32:35.991Z,98980.72
2023-04-01T04:35:03.316Z,98970.50
2023-04-01T04:37:29.866Z,98969.69
2023-04-01T04:39:56.510Z,98972.00
2023-04-01T04:42:23.004Z,98980.38
2023-04-01T04:44:53.912Z,98977.63
2023-04-01T04:47:20.536Z,98978.66
2023-04-01T04:49:47.155Z,98977.25
2023-04-01T04:52:13.505Z,98980.16
2023-04-01T04:54:40.279Z,98975.56
2023-04-01T04:57:06.753Z,98986.44
2023-04-01T04:59:41.263Z,98984.53
2023-04-01T05:02:19.409Z,98990.59
2023-04-01T05:04:47.409Z,98988.72
2023-04-01T05:07:14.520Z,98988.50
2023-04-01T05:09:41.200Z,99001.03
2023-04-01T05:12:07.817Z,98995.00
2023-04-01T05:14:54.769Z,98996.47
2023-04-01T05:17:21.215Z,99003.16
2023-04-01T05:19:47.608Z,99006.09
2023-04-01T05:22:14.059Z,99004.44
2023-04-01T05:24:41.187Z,99014.47
2023-04-01T05:27:07.255Z,99010.72
2023-04-01T05:29:37.433Z,99012.38
2023-04-01T05:32:07.259Z,99014.25
2023-04-01T05:34:34.831Z,99013.44
2023-04-01T05:37:01.055Z,99006.53
2023-04-01T05:39:27.653Z,99014.06
2023-04-01T05:41:54.100Z,99015.09
2023-04-01T05:44:20.653Z,99009.47
2023-04-01T05:47:03.941Z,99017.00
2023-04-01T05:49:31.467Z,99009.91
2023-04-01T05:51:57.739Z,99009.06
2023-04-01T05:54:24.098Z,99014.28
2023-04-01T05:56:50.358Z,99011.97
2023-04-01T05:59:17.804Z,99020.34
2023-04-01T06:01:44.230Z,99020.78
2023-04-01T06:04:18.491Z,99020.78
2023-04-01T06:06:46.325Z,99018.66
2023-04-01T06:09:27.094Z,99023.47
2023-04-01T06:12:16.666Z,99039.56
2023-04-01T06:15:09.552Z,99034.13
2023-04-01T06:18:02.806Z,99032.44
2023-04-01T06:20:49.010Z,99032.84
2023-04-01T06:23:40.241Z,99048.34
2023-04-01T06:26:11.772Z,99047.84
2023-04-01T06:28:56.057Z,99043.81
2023-04-01T06:31:42.633Z,99045.28
2023-04-01T06:34:36.696Z,99061.59
2023-04-01T06:37:22.808Z,99057.28
2023-04-01T06:40:10.657Z,99054.72
2023-04-01T06:42:43.624Z,99049.97
2023-04-01T06:45:46.123Z,99053.34
2023-04-01T06:49:33.919Z,99059.19
2023-04-01T06:53:11.789Z,99066.25
2023-04-01T06:56:04.921Z,99068.41
2023-04-01T06:59:03.352Z,99069.50
2023-04-01T07:01:41.724Z,99063.28
2023-04-01T07:04:30.645Z,99079.56
2023-04-01T07:07:00.900Z,99072.69
2023-04-01T07:09:39.189Z,99071.19
2023-04-01T07:12:50.108Z,99082.91
2023-04-01T07:15:40.179Z,99085.84
2023-04-01T07:18:18.233Z,99078.38
2023-04-01T07:20:46.200Z,99084.59
2023-04-01T07:23:25.462Z,99088.94
2023-04-01T07:26:23.335Z,99086.91
2023-04-01T07:29:13.649Z,99096.31
2023-04-01T07:31:46.357Z,99096.81
2023-04-01T07:34:28.645Z,99094.13
2023-04-01T07:37:18.299Z,99094.38
2023-04-01T07:40:00.360Z,99105.22
2023-04-01T07:42:42.227Z,99109.44
2023-04-01T07:45:21.939Z,99101.03
2023-04-01T07:48:00.763Z,99105.00
2023-04-01T07:50:36.317Z,99109.41
2023-04-01T07:53:16.555Z,99108.66
2023-04-01T07:55:50.932Z,99116.22
2023-04-01T07:58:39.820Z,99124.13
2023-04-01T08:01:19.613Z,99119.34
2023-04-01T08:04:31.619Z,99127.94
2023-04-01T08:07:17.473Z,99135.22
2023-04-01T08:10:25.230Z,99135.84
2023-04-01T08:13:29.768Z,99134.53
2023-04-01T08:16:44.620Z,99136.28
2023-04-01T08:19:39.664Z,99137.41
2023-04-01T08:22:18.086Z,99149.72
2023-04-01T08:24:48.266Z,99147.00
2023-04-01T08:27:47.135Z,99149.75
2023-04-01T08:30:19.748Z,99153.06
2023-04-01T08:33:22.640Z,99154.09
2023-04-01T08:36:03.661Z,99144.34
2023-04-01T08:38:49.345Z,99155.31
2023-04-01T08:41:40.600Z,99156.47
2023-04-01T08:45:16.064Z,99146.50
2023-04-01T08:48:11.439Z,99160.97
2023-04-01T08:51:16.450Z,99165.38
2023-04-01T08:54:11.767Z,99156.59
2023-04-01T08:57:08.254Z,99163.91
2023-04-01T09:00:01.376Z,99175.22
2023-04-01T09:03:09.561Z,99174.78
2023-04-01T09:05:38.799Z,99169.13
2023-04-01T09:08:26.770Z,99170.63
2023-04-01T09:11:12.056Z,99177.53
2023-04-01T09:14:35.202Z,99179.63
2023-04-01T09:17:49.772Z,99186.13
2023-04-01T09:20:25.288Z,99184.44
2023-04-01T09:23:49.091Z,99191.13
2023-04-01T09:26:34.135Z,99195.31
2023-04-01T09:29:32.937Z,99199.94
2023-04-01T09:32:27.276Z,99201.41
2023-04-01T09:35:25.029Z,99205.38
2023-04-01T09:38:00.193Z,99205.78
2023-04-01T09:40:54.221Z,99200.75
2023-04-01T09:43:48.204Z,99209.56
2023-04-01T09:46:27.419Z,99216.06
2023-04-01T09:49:16.557Z,99221.72
2023-04-01T09:52:01.296Z,99217.28
2023-04-01T09:54:44.425Z,99216.44
2023-04-01T09:57:30.021Z,99227.97
2023-04-01T10:00:46.762Z,99234.66
2023-04-01T10:03:38.163Z,99232.34
2023-04-01T10:06:38.467Z,99249.13
2023-04-01T10:09:36.656Z,99240.56
2023-04-01T10:12:11.956Z,99246.63
2023-04-01T10:14:54.143Z,99246.88
2023-04-01T10:17:40.550Z,99252.91
2023-04-01T10:20:46.528Z,99247.47
2023-04-01T10:23:35.794Z,99256.25
2023-04-01T10:26:24.672Z,99260.81
2023-04-01T10:29:31.497Z,99263.50
2023-04-01T10:32:20.499Z,99274.63
2023-04-01T10:35:08.241Z,99269.00
2023-04-01T10:37:53.433Z,99269.03
2023-04-01T10:40:45.858Z,99267.97
2023-04-01T10:43:47.740Z,99272.81
2023-04-01T10:46:53.178Z,99282.22
2023-04-01T10:49:45.391Z,99275.75
2023-04-01T10:52:39.716Z,99282.00
2023-04-01T10:56:15.871Z,99290.56
2023-04-01T10:59:42.152Z,99287.88
2023-04-01T11:03:08.616Z,99294.16
2023-04-01T11:06:23.617Z,99296.88
2023-04-01T11:09:26.340Z,99293.91
2023-04-01T11:12:17.174Z,99302.03
2023-04-01T11:14:58.279Z,99299.84
2023-04-01T11:17:28.176Z,99305.50
2023-04-01T11:19:58.131Z,99303.06
2023-04-01T11:22:43.699Z,99310.38
2023-04-01T11:25:35.282Z,99317.38
2023-04-01T11:28:35.790Z,99317.13
2023-04-01T11:31:22.378Z,99323.53
2023-04-01T11:33:48.918Z,99317.19
2023-04-01T11:36:22.496Z,99330.22
2023-04-01T11:39:01.901Z,99331.44
2023-04-01T11:42:11.434Z,99324.31
2023-04-01T11:45:16.745Z,99329.00
2023-04-01T11:48:04.175Z,99330.09
2023-04-01T11:50:43.593Z,99339.06
2023-04-01T11:53:17.769Z,99344.41
2023-04-01T11:55:55.943Z,99342.50
2023-04-01T11:58:53.311Z,99340.22
2023-04-01T12:01:33.510Z,99347.38
2023-04-01T12:04:38.079Z,99356.69
2023-04-01T12:07:13.433Z,99356.13
2023-04-01T12:10:05.118Z,99361.75
2023-04-01T12:13:01.673Z,99354.22
2023-04-01T12:15:28.738Z,99366.75
2023-04-01T12:18:25.828Z,99374.59
2023-04-01T12:21:01.012Z,99375.03
2023-04-01T12:23:47.829Z,99375.09
2023-04-01T12:26:52.522Z,99380.06
2023-04-01T12:29:42.655Z,99380.41
2023-04-01T12:32:35.092Z,99391.94
2023-04-01T12:35:07.161Z,99391.09
2023-04-01T12:37:47.383Z,99395.84
2023-04-01T12:40:51.680Z,99393.78
2023-04-01T12:43:29.818Z,99397.66
2023-04-01T12:46:21.479Z,99403.63
2023-04-01T12:49:15.925Z,99402.75
2023-04-01T12:52:05.404Z,99407.28
2023-04-01T12:54:38.444Z,99406.56
2023-04-01T12:57:35.307Z,99411.31
2023-04-01T13:00:33.105Z,99418.91
2023-04-01T13:03:20.892Z,99412.88
2023-04-01T13:06:25.635Z,99415.94
2023-04-01T13:08:59.417Z,99417.09
2023-04-01T13:11:44.209Z,99429.50
2023-04-01T13:14:31.866Z,99425.03
2023-04-01T13:17:23.807Z,99423.72
2023-04-01T13:20:05.592Z,99435.13
2023-04-01T13:22:57.029Z,99431.75
2023-04-01T13:25:45.479Z,99442.81
2023-04-01T13:28:34.146Z,99438.88
2023-04-01T13:31:25.522Z,99437.78
2023-04-01T13:34:16.998Z,99453.53
2023-04-01T13:36:52.398Z,99449.69
2023-04-01T13:39:22.946Z,99456.47
2023-04-01T13:42:11.753Z,99449.06
2023-04-01T13:45:19.551Z,99456.75
2023-04-01T13:48:04.683Z,99459.00
2023-04-01T13:50:56.191Z,99463.38
2023-04-01T13:53:36.185Z,99471.78
2023-04-01T13:56:09.226Z,99470.50
2023-04-01T13:58:39.554Z,99473.84
2023-04-01T14:01:24.793Z,99475.06
2023-04-01T14:04:30.270Z,99473.75
2023-04-01T14:07:19.705Z,99476.47
2023-04-01T14:09:53.276Z,99484.22
2023-04-01T14:12:40.511Z,99482.16
2023-04-01T14:15:21.741Z,99477.97
2023-04-01T14:17:57.586Z,99485.56
2023-04-01T14:21:14.283Z,99495.56
2023-04-01T14:24:22.069Z,99489.13
2023-04-01T14:27:19.837Z,99492.75
2023-04-01T14:30:01.958Z,99495.38
2023-04-01T14:32:34.698Z,99492.28
2023-04-01T14:35:19.961Z,99500.63
2023-04-01T14:37:48.983Z,99505.09
2023-04-01T14:40:21.381Z,99514.75
2023-04-01T14:43:06.574Z,99515.22
2023-04-01T14:46:01.106Z,99512.69
2023-04-01T14:48:35.791Z,99523.84
2023-04-01T14:51:29.339Z,99522.16
2023-04-01T14:54:12.422Z,99525.97
2023-04-01T14:56:42.490Z,99530.38
2023-04-01T14:59:26.211Z,99528.97
2023-04-01T15:02:18.720Z,99534.78
2023-04-01T15:04:48.442Z,99541.56
2023-04-01T15:07:30.984Z,99550.41
2023-04-01T15:10:23.623Z,99545.31
2023-04-01T15:13:05.538Z,99549.88
2023-04-01T15:15:40.960Z,99549.72
2023-04-01T15:18:26.300Z,99565.00
2023-04-01T15:21:28.014Z,99563.19
2023-04-01T15:24:03.701Z,99561.66
2023-04-01T15:26:54.840Z,99564.28
2023-04-01T15:29:40.812Z,99562.50
2023-04-01T15:32:29.159Z,99571.84
2023-04-01T15:35:19.989Z,99583.31
2023-04-01T15:37:57.223Z,99585.56
2023-04-01T15:40:35.564Z,99590.78
2023-04-01T15:43:27.931Z,99587.84
2023-04-01T15:45:59.708Z,99597.31
2023-04-01T15:48:33.133Z,99596.03
2023-04-01T15:51:23.504Z,99602.63
2023-04-01T15:54:27.361Z,99606.50
2023-04-01T15:57:20.896Z,99600.34
2023-04-01T16:00:26.988Z,99610.47
2023-04-01T16:03:09.170Z,99606.44
2023-04-01T16:05:47.669Z,99610.38
2023-04-01T16:08:23.660Z,99615.53
2023-04-01T16:11:04.967Z,99620.78
2023-04-01T16:13:43.350Z,99622.69
2023-04-01T16:16:15.793Z,99628.72
2023-04-01T16:19:01.133Z,99625.19
2023-04-01T16:21:45.182Z,99631.38
2023-04-01T16:24:21.005Z,99634.56
2023-04-01T16:27:19.511Z,99651.03
2023-04-01T16:29:51.461Z,99645.66
2023-04-01T16:32:44.817Z,99653.78
2023-04-01T16:35:28.357Z,99660.63
2023-04-01T16:38:04.898Z,99665.06
2023-04-01T16:40:46.585Z,99670.88
2023-04-01T16:43:27.249Z,99677.63
2023-04-01T16:46:00.401Z,99685.72
2023-04-01T16:49:08.324Z,99679.84
2023-04-01T16:52:06.276Z,99683.44
2023-04-01T16:54:58.507Z,99684.13
2023-04-01T16:57:58.767Z,99693.63
2023-04-01T17:00:40.600Z,99700.03
2023-04-01T17:03:07.311Z,99702.28
2023-04-01T17:05:42.405Z,99710.03
2023-04-01T17:08:38.426Z,99712.72
2023-04-01T17:11:17.758Z,99717.97
2023-04-01T17:13:58.502Z,99723.00
2023-04-01T17:16:38.174Z,99723.34
2023-04-01T17:19:26.436Z,99729.44
2023-04-01T17:22:05.309Z,99735.16
2023-04-01T17:24:37.677Z,99737.00
2023-04-01T17:27:18.510Z,99740.97
2023-04-01T17:30:13.990Z,99749.16
2023-04-01T17:33:02.985Z,99752.88
2023-04-01T17:35:39.798Z,99757.19
2023-04-01T17:38:18.297Z,99773.25
2023-04-01T17:40:57.997Z,99772.25
2023-04-01T17:43:39.833Z,99761.56
2023-04-01T17:46:37.872Z,99773.75
2023-04-01T17:49:13.436Z,99778.31
2023-04-01T17:51:53.998Z,99771.53
2023-04-01T17:54:38.909Z,99783.88
2023-04-01T17:57:28.538Z,99787.28
2023-04-01T18:00:15.503Z,99793.88
2023-04-01T18:02:51.081Z,99795.06
2023-04-01T18:05:41.702Z,99808.41
2023-04-01T18:08:40.369Z,99808.75
2023-04-01T18:11:12.558Z,99820.56
2023-04-01T18:13:50.116Z,99814.16
2023-04-01T18:16:38.680Z,99832.66
2023-04-01T18:19:13.667Z,99827.31
2023-04-01T18:21:42.930Z,99825.75
2023-04-01T18:24:40.226Z,99835.91
2023-04-01T18:27:09.525Z,99840.38
2023-04-01T18:29:59.738Z,99846.50
2023-04-01T18:32:36.316Z,99854.41
2023-04-01T18:35:35.307Z,99854.56
2023-04-01T18:38:06.755Z,99858.72
2023-04-01T18:40:38.419Z,99863.19
2023-04-01T18:43:21.425Z,99863.94
2023-04-01T18:46:31.380Z,99869.09
2023-04-01T18:49:17.130Z,99879.69
2023-04-01T18:52:08.170Z,99877.78
2023-04-01T18:54:46.509Z,99891.75
2023-04-01T18:57:15.805Z,99885.81
2023-04-01T18:59:47.235Z,99898.34
2023-04-01T19:02:31.470Z,99908.09
2023-04-01T19:05:19.652Z,99915.94
2023-04-01T19:07:48.310Z,99909.00
2023-04-01T19:10:36.672Z,99928.38
2023-04-01T19:13:06.173Z,99921.88
2023-04-01T19:15:38.486Z,99927.38
2023-04-01T19:18:45.673Z,99929.03
2023-04-01T19:21:34.180Z,99930.41
2023-04-01T19:24:21.093Z,99934.47
2023-04-01T19:26:59.529Z,99937.69
2023-04-01T19:29:32.032Z,99948.03
2023-04-01T19:32:14.235Z,99947.03
2023-04-01T19:34:48.607Z,99949.78
2023-04-01T19:37:36.837Z,99954.75
2023-04-01T19:40:28.257Z,99956.22
2023-04-01T19:43:30.113Z,99962.94
2023-04-01T19:46:14.456Z,99960.59
2023-04-01T19:49:00.074Z,99968.34
2023-04-01T19:51:46.130Z,99982.84
2023-04-01T19:54:35.924Z,99977.28
2023-04-01T19:57:24.141Z,99981.00
2023-04-01T20:00:13.812Z,99980.75
2023-04-01T20:03:02.544Z,99986.78
2023-04-01T20:05:40.518Z,99990.16
2023-04-01T20:08:27.175Z,99996.78
2023-04-01T20:11:03.430Z,99995.19
2023-04-01T20:13:40.842Z,100012.28
2023-04-01T20:16:09.065Z,100013.69
2023-04-01T20:18:59.495Z,100015.31
2023-04-01T20:21:48.186Z,100015.38
2023-04-01T20:24:14.983Z,100028.09
2023-04-01T20:26:46.239Z,100026.63
2023-04-01T20:29:37.149Z,100022.00
2023-04-01T20:32:12.144Z,100036.66
2023-04-01T20:35:00.512Z,100035.25
2023-04-01T20:38:11.428Z,100042.47
2023-04-01T20:40:47.277Z,100054.16
2023-04-01T20:43:47.942Z,100046.41
2023-04-01T20:46:22.810Z,100047.97
2023-04-01T20:49:11.143Z,100052.91
2023-04-01T20:51:53.506Z,100053.84
2023-04-01T20:54:38.718Z,100057.13
2023-04-01T20:57:28.549Z,100053.31
2023-04-01T21:00:20.077Z,100056.41
2023-04-01T21:03:12.432Z,100057.75
2023-04-01T21:06:03.546Z,100059.84
2023-04-01T21:08:41.319Z,100072.88
2023-04-01T21:11:28.393Z,100074.31
2023-04-01T21:14:34.514Z,100075.47
2023-04-01T21:17:19.536Z,100082.88
2023-04-01T21:20:04.830Z,100089.56
2023-04-01T21:22:43.812Z,100086.91
2023-04-01T21:25:29.610Z,100099.09
2023-04-01T21:28:25.286Z,100098.97
2023-04-01T21:31:01.056Z,100104.50
2023-04-01T21:33:33.649Z,100115.59
2023-04-01T21:36:09.380Z,100122.00
2023-04-01T21:38:44.466Z,100114.94
2023-04-01T21:41:40.395Z,100122.41
2023-04-01T21:44:14.481Z,100118.56
2023-04-01T21:47:08.672Z,100126.81
2023-04-01T21:50:04.596Z,100129.06
2023-04-01T21:52:55.790Z,100138.19
2023-04-01T21:55:52.419Z,100134.22
2023-04-01T21:58:41.214Z,100146.00
2023-04-01T22:01:35.475Z,100149.72
2023-04-01T22:04:30.715Z,100149.03
2023-04-01T22:07:02.506Z,100150.00
2023-04-01T22:09:40.114Z,100145.91
2023-04-01T22:12:19.631Z,100157.53
2023-04-01T22:15:12.728Z,100165.75
2023-04-01T22:17:53.731Z,100159.75
2023-04-01T22:20:32.560Z,100159.31
2023-04-01T22:23:15.193Z,100170.78
2023-04-01T22:25:51.151Z,100179.91
2023-04-01T22:28:28.362Z,100175.91
2023-04-01T22:31:03.589Z,100180.03
2023-04-01T22:33:30.066Z,100189.25
2023-04-01T22:36:18.044Z,100194.81
2023-04-01T22:38:57.937Z,100196.22
2023-04-01T22:41:34.310Z,100192.94
2023-04-01T22:44:00.789Z,100193.94
2023-04-01T22:46:36.324Z,100193.94
2023-04-01T22:49:05.088Z,100201.72
2023-04-01T22:51:45.387Z,100214.50
2023-04-01T22:54:35.433Z,100212.09
2023-04-01T22:57:12.312Z,100211.53
2023-04-01T22:59:52.181Z,100213.50
2023-04-01T23:02:28.825Z,100220.63
2023-04-01T23:05:05.557Z,100211.31
2023-04-01T23:07:49.368Z,100217.19
2023-04-01T23:10:24.017Z,100225.16
2023-04-01T23:12:54.186Z,100224.09
2023-04-01T23:15:21.449Z,100225.66
2023-04-01T23:17:55.778Z,100224.75
2023-04-01T23:20:46.506Z,100235.75
2023-04-01T23:23:21.536Z,100236.88
2023-04-01T23:26:10.470Z,100249.44
2023-04-01T23:28:41.416Z,100244.41
2023-04-01T23:31:30.510Z,100256.53
2023-04-01T23:34:00.371Z,100255.75
2023-04-01T23:36:27.775Z,100252.91
2023-04-01T23:38:54.640Z,100261.97
2023-04-01T23:41:28.220Z,100258.81
2023-04-01T23:44:01.229Z,100264.09
2023-04-01T23:46:30.668Z,100274.59
2023-04-01T23:48:57.321Z,100275.34
2023-04-01T23:51:27.405Z,100275.09
2023-04-01T23:54:02.421Z,100281.19
2023-04-01T23:56:39.011Z,100281.31
2023-04-01T23:59:05.419Z,100292.28
